Teddington, United Kingdom
Current Conditions -  °F | °C
As of 4:20 PM on Wednesday 26 Nov 2014 (Local Time) from EGLL Reporting Station
Haze Haze  
Wind Chill: 50°   Ceiling: 300
Heat Index: 50°   Visibility: 1.6mi
Dew Point: 48°   Wind: 3mph
Humidity: 94%   Direction: NA
Pressure: 29.8"   Gusts: NA
Location:  51.42°N, 0.33°W
Report Text: EGLL 261620Z VRB03KT 2600 BR FEW002 BKN003 BKN004 10/09 Q1009 TEMPO 1400
Loading
Personal Weather Stations






























Interactive Weather Map New forecast layout! Learn more

10-Day Weather Forecast

Advertisements
Track Severe Weather on mobile